createdAt,value
2019-05-07T00:00:12.604Z,99270
2019-05-07T00:02:10.367Z,99270
2019-05-07T00:04:12.921Z,99270
2019-05-07T00:06:12.177Z,99270
2019-05-07T00:08:09.487Z,99260
2019-05-07T00:10:09.871Z,99260
2019-05-07T00:12:12.456Z,99260
2019-05-07T00:14:09.854Z,99260
2019-05-07T00:16:08.845Z,99260
2019-05-07T00:18:08.706Z,99260
2019-05-07T00:20:09.293Z,99270
2019-05-07T00:22:08.401Z,99270
2019-05-07T00:24:13.162Z,99260
2019-05-07T00:26:08.083Z,99270
2019-05-07T00:28:07.804Z,99270
2019-05-07T00:30:07.896Z,99270
2019-05-07T00:32:07.511Z,99270
2019-05-07T00:34:07.293Z,99270
2019-05-07T00:36:07.443Z,99270
2019-05-07T00:38:06.884Z,99270
2019-05-07T00:40:06.864Z,99270
2019-05-07T00:42:06.559Z,99270
2019-05-07T00:44:06.569Z,99270
2019-05-07T00:46:06.403Z,99280
2019-05-07T00:48:05.931Z,99280
2019-05-07T00:50:06.517Z,99270
2019-05-07T00:52:05.671Z,99270
2019-05-07T00:54:05.513Z,99270
2019-05-07T00:56:06.637Z,99270
2019-05-07T00:57:26.410Z,99270
2019-05-07T00:57:26.641Z,99270
2019-05-07T00:58:05.093Z,99280
2019-05-07T01:00:05.724Z,99270
2019-05-07T01:02:04.886Z,99270
2019-05-07T01:04:04.701Z,99270
2019-05-07T01:06:04.547Z,99280
2019-05-07T01:08:05.045Z,99270
2019-05-07T01:10:06.337Z,99270
2019-05-07T01:12:04.998Z,99270
2019-05-07T01:14:04.016Z,99270
2019-05-07T01:16:03.584Z,99270
2019-05-07T01:18:03.440Z,99270
2019-05-07T01:20:04.607Z,99270
2019-05-07T01:22:03.296Z,99270
2019-05-07T01:24:03.443Z,99270
2019-05-07T01:26:03.513Z,99260
2019-05-07T01:28:02.739Z,99260
2019-05-07T01:30:04.522Z,99270
2019-05-07T01:32:03.099Z,99270
2019-05-07T01:34:02.560Z,99270
2019-05-07T01:36:02.439Z,99270
2019-05-07T01:38:03.111Z,99270
2019-05-07T01:40:03.048Z,99280
2019-05-07T01:42:02.118Z,99270
2019-05-07T01:44:02.515Z,99280
2019-05-07T01:46:02.975Z,99280
2019-05-07T01:48:04.248Z,99280
2019-05-07T01:50:02.993Z,99280
2019-05-07T01:52:02.305Z,99280
2019-05-07T01:54:02.069Z,99280
2019-05-07T01:55:59.704Z,99280
2019-05-07T01:58:04.602Z,99280
2019-05-07T01:59:59.538Z,99280
2019-05-07T02:01:59.245Z,99280
2019-05-07T02:03:59.037Z,99280
2019-05-07T02:05:58.781Z,99280
2019-05-07T02:08:02.807Z,99280
2019-05-07T02:09:58.435Z,99270
2019-05-07T02:12:02.546Z,99270
2019-05-07T02:13:59.433Z,99270
2019-05-07T02:16:01.270Z,99270
2019-05-07T02:17:57.780Z,99270
2019-05-07T02:19:57.592Z,99280
2019-05-07T02:21:57.619Z,99270
2019-05-07T02:23:57.322Z,99270
2019-05-07T02:25:57.034Z,99270
2019-05-07T02:27:56.803Z,99270
2019-05-07T02:29:56.685Z,99280
2019-05-07T02:31:57.043Z,99280
2019-05-07T02:33:56.347Z,99270
2019-05-07T02:35:56.269Z,99270
2019-05-07T02:37:57.026Z,99270
2019-05-07T02:39:55.941Z,99270
2019-05-07T02:41:55.899Z,99270
2019-05-07T02:43:59.900Z,99270
2019-05-07T02:45:55.355Z,99280
2019-05-07T02:47:55.356Z,99270
2019-05-07T02:49:55.177Z,99280
2019-05-07T02:51:55.033Z,99270
2019-05-07T02:53:54.716Z,99280
2019-05-07T02:55:54.738Z,99280
2019-05-07T02:57:54.724Z,99270
2019-05-07T02:59:54.634Z,99270
2019-05-07T03:01:54.356Z,99270
2019-05-07T03:03:53.988Z,99270
2019-05-07T03:05:53.984Z,99270
2019-05-07T03:07:53.887Z,99280
2019-05-07T03:09:54.050Z,99280
2019-05-07T03:11:53.293Z,99280
2019-05-07T03:13:53.990Z,99280
2019-05-07T03:15:54.066Z,99280
2019-05-07T03:17:53.845Z,99280
2019-05-07T03:19:53.549Z,99280
2019-05-07T03:21:54.007Z,99280
2019-05-07T03:23:53.887Z,99280
2019-05-07T03:25:54.254Z,99280
2019-05-07T03:27:53.553Z,99270
2019-05-07T03:29:53.477Z,99280
2019-05-07T03:31:56.267Z,99280
2019-05-07T03:33:56.029Z,99280
2019-05-07T03:35:56.254Z,99280
2019-05-07T03:37:54.381Z,99280
2019-05-07T03:39:53.778Z,99280
2019-05-07T03:41:53.173Z,99280
2019-05-07T03:43:52.727Z,99270
2019-05-07T03:45:53.735Z,99280
2019-05-07T03:47:53.937Z,99280
2019-05-07T03:49:53.333Z,99280
2019-05-07T03:51:52.958Z,99280
2019-05-07T03:53:50.343Z,99280
2019-05-07T03:55:53.388Z,99280
2019-05-07T03:57:52.719Z,99280
2019-05-07T03:59:53.003Z,99280
2019-05-07T04:01:49.868Z,99280
2019-05-07T04:03:49.715Z,99280
2019-05-07T04:05:52.835Z,99280
2019-05-07T04:07:49.514Z,99280
2019-05-07T04:09:49.319Z,99280
2019-05-07T04:11:49.325Z,99280
2019-05-07T04:13:49.318Z,99280
2019-05-07T04:15:48.962Z,99280
2019-05-07T04:17:49.008Z,99270
2019-05-07T04:19:49.160Z,99280
2019-05-07T04:21:48.738Z,99270
2019-05-07T04:23:48.634Z,99280
2019-05-07T04:25:49.581Z,99280
2019-05-07T04:27:49.424Z,99270
2019-05-07T04:29:48.184Z,99280
2019-05-07T04:31:48.086Z,99270
2019-05-07T04:33:47.890Z,99270
2019-05-07T04:35:47.765Z,99270
2019-05-07T04:37:47.852Z,99280
2019-05-07T04:39:47.705Z,99280
2019-05-07T04:41:47.440Z,99280
2019-05-07T04:43:47.530Z,99280
2019-05-07T04:45:47.325Z,99280
2019-05-07T04:47:47.926Z,99280
2019-05-07T04:49:47.627Z,99280
2019-05-07T04:51:46.836Z,99280
2019-05-07T04:53:46.814Z,99280
2019-05-07T04:55:46.949Z,99280
2019-05-07T04:57:46.577Z,99280
2019-05-07T04:59:46.495Z,99280
2019-05-07T05:01:47.049Z,99280
2019-05-07T05:03:46.414Z,99280
2019-05-07T05:05:46.337Z,99290
2019-05-07T05:07:46.525Z,99280
2019-05-07T05:09:46.140Z,99280
2019-05-07T05:11:46.195Z,99280
2019-05-07T05:13:46.467Z,99280
2019-05-07T05:15:45.906Z,99280
2019-05-07T05:17:50.698Z,99280
2019-05-07T05:19:46.283Z,99280
2019-05-07T05:21:45.926Z,99280
2019-05-07T05:23:45.457Z,99280
2019-05-07T05:25:45.522Z,99280
2019-05-07T05:27:45.403Z,99280
2019-05-07T05:29:45.837Z,99290
2019-05-07T05:31:46.269Z,99280
2019-05-07T05:33:45.039Z,99280
2019-05-07T05:35:44.995Z,99280
2019-05-07T05:37:45.607Z,99280
2019-05-07T05:39:44.918Z,99280
2019-05-07T05:41:45.272Z,99270
2019-05-07T05:43:45.343Z,99270
2019-05-07T05:45:44.765Z,99270
2019-05-07T05:47:45.010Z,99270
2019-05-07T05:49:44.772Z,99270
2019-05-07T05:51:44.512Z,99270
2019-05-07T05:53:44.435Z,99270
2019-05-07T05:55:44.355Z,99270
2019-05-07T05:57:44.373Z,99270
2019-05-07T05:59:51.321Z,99270
2019-05-07T06:01:44.781Z,99270
2019-05-07T06:03:44.201Z,99270
2019-05-07T06:05:44.189Z,99270
2019-05-07T06:07:44.512Z,99270
2019-05-07T06:09:43.982Z,99260
2019-05-07T06:11:43.950Z,99260
2019-05-07T06:13:43.943Z,99260
2019-05-07T06:15:46.984Z,99260
2019-05-07T06:17:43.662Z,99260
2019-05-07T06:19:43.705Z,99260
2019-05-07T06:21:43.554Z,99260
2019-05-07T06:23:43.560Z,99260
2019-05-07T06:25:45.130Z,99260
2019-05-07T06:27:43.503Z,99260
2019-05-07T06:29:43.490Z,99260
2019-05-07T06:31:44.518Z,99260
2019-05-07T06:33:44.361Z,99260
2019-05-07T06:35:43.346Z,99250
2019-05-07T06:37:43.572Z,99250
2019-05-07T06:39:43.402Z,99260
2019-05-07T06:41:43.369Z,99260
2019-05-07T06:43:43.448Z,99260
2019-05-07T06:45:43.297Z,99250
2019-05-07T06:47:43.075Z,99260
2019-05-07T06:49:43.240Z,99250
2019-05-07T06:51:44.059Z,99250
2019-05-07T06:53:42.877Z,99250
2019-05-07T06:55:43.664Z,99250
2019-05-07T06:57:42.765Z,99250
2019-05-07T06:59:42.869Z,99250
2019-05-07T07:01:43.471Z,99250
2019-05-07T07:03:42.759Z,99250
2019-05-07T07:05:42.774Z,99250
2019-05-07T07:07:42.739Z,99250
2019-05-07T07:09:42.974Z,99250
2019-05-07T07:11:42.894Z,99250
2019-05-07T07:13:42.791Z,99250
2019-05-07T07:15:42.744Z,99250
2019-05-07T07:17:42.796Z,99250
2019-05-07T07:19:43.417Z,99250
2019-05-07T07:21:42.659Z,99250
2019-05-07T07:23:42.981Z,99260
2019-05-07T07:25:43.053Z,99250
2019-05-07T07:27:43.043Z,99250
2019-05-07T07:29:44.919Z,99250
2019-05-07T07:31:42.664Z,99240
2019-05-07T07:33:43.673Z,99250
2019-05-07T07:35:42.869Z,99240
2019-05-07T07:37:43.110Z,99240
2019-05-07T07:39:43.036Z,99240
2019-05-07T07:41:42.316Z,99240
2019-05-07T07:43:42.819Z,99240
2019-05-07T07:45:42.252Z,99230
2019-05-07T07:47:42.279Z,99240
2019-05-07T07:49:42.423Z,99230
2019-05-07T07:51:45.450Z,99240
2019-05-07T07:53:42.565Z,99240
2019-05-07T07:55:44.710Z,99230
2019-05-07T07:57:42.753Z,99230
2019-05-07T07:59:42.320Z,99230
2019-05-07T08:01:42.944Z,99230
2019-05-07T08:03:42.140Z,99230
2019-05-07T08:05:42.705Z,99220
2019-05-07T08:07:42.768Z,99230
2019-05-07T08:09:49.360Z,99230
2019-05-07T08:11:42.680Z,99220
2019-05-07T08:13:42.573Z,99220
2019-05-07T08:15:44.008Z,99220
2019-05-07T08:17:42.199Z,99220
2019-05-07T08:19:43.730Z,99210
2019-05-07T08:21:43.178Z,99210
2019-05-07T08:23:42.488Z,99210
2019-05-07T08:25:42.708Z,99220
2019-05-07T08:27:42.187Z,99210
2019-05-07T08:29:42.958Z,99210
2019-05-07T08:31:42.575Z,99210
2019-05-07T08:33:42.636Z,99220
2019-05-07T08:35:42.434Z,99210
2019-05-07T08:37:42.753Z,99220
2019-05-07T08:39:42.886Z,99220
2019-05-07T08:41:42.456Z,99220
2019-05-07T08:43:43.365Z,99220
2019-05-07T08:45:43.180Z,99210
2019-05-07T08:47:42.673Z,99210
2019-05-07T08:49:43.364Z,99210
2019-05-07T08:51:42.733Z,99210
2019-05-07T08:53:42.519Z,99210
2019-05-07T08:55:42.664Z,99210
2019-05-07T08:57:45.890Z,99200
2019-05-07T08:59:57.179Z,99210
2019-05-07T09:01:43.472Z,99200
2019-05-07T09:03:43.178Z,99200
2019-05-07T09:05:42.717Z,99200
2019-05-07T09:07:42.750Z,99200
2019-05-07T09:09:43.022Z,99210
2019-05-07T09:11:43.051Z,99210
2019-05-07T09:13:43.660Z,99200
2019-05-07T09:15:42.852Z,99200
2019-05-07T09:17:42.956Z,99200
2019-05-07T09:19:50.760Z,99200
2019-05-07T09:21:43.157Z,99190
2019-05-07T09:23:43.427Z,99200
2019-05-07T09:25:43.050Z,99200
2019-05-07T09:27:43.159Z,99200
2019-05-07T09:29:43.669Z,99210
2019-05-07T09:31:45.039Z,99210
2019-05-07T09:33:43.261Z,99210
2019-05-07T09:35:43.318Z,99210
2019-05-07T09:37:43.599Z,99210
2019-05-07T09:39:43.471Z,99200
2019-05-07T09:41:44.001Z,99200
2019-05-07T09:43:45.832Z,99200
2019-05-07T09:45:43.847Z,99200
2019-05-07T09:47:43.938Z,99200
2019-05-07T09:49:44.064Z,99190
2019-05-07T09:51:44.981Z,99190
2019-05-07T09:53:45.278Z,99200
2019-05-07T09:55:44.125Z,99200
2019-05-07T09:57:52.802Z,99200
2019-05-07T09:59:44.481Z,99190
2019-05-07T10:01:44.622Z,99190
2019-05-07T10:03:44.355Z,99190
2019-05-07T10:05:44.585Z,99190
2019-05-07T10:07:44.653Z,99190
2019-05-07T10:09:47.744Z,99190
2019-05-07T10:11:44.836Z,99200
2019-05-07T10:13:45.066Z,99190
2019-05-07T10:15:45.052Z,99190
2019-05-07T10:17:45.053Z,99190
2019-05-07T10:19:45.487Z,99190
2019-05-07T10:21:45.171Z,99180
2019-05-07T10:23:45.299Z,99180
2019-05-07T10:25:45.870Z,99190
2019-05-07T10:27:45.602Z,99190
2019-05-07T10:29:45.521Z,99190
2019-05-07T10:31:45.715Z,99190
2019-05-07T10:33:47.055Z,99190
2019-05-07T10:35:45.877Z,99190
2019-05-07T10:37:46.982Z,99190
2019-05-07T10:39:45.862Z,99190
2019-05-07T10:41:45.876Z,99190
2019-05-07T10:43:46.325Z,99180
2019-05-07T10:45:46.049Z,99180
2019-05-07T10:47:46.218Z,99190
2019-05-07T10:49:47.167Z,99180
2019-05-07T10:51:46.303Z,99180
2019-05-07T10:53:46.173Z,99180
2019-05-07T10:55:46.567Z,99180
2019-05-07T10:57:46.427Z,99180
2019-05-07T10:59:46.442Z,99180
2019-05-07T11:01:46.534Z,99170
2019-05-07T11:03:46.791Z,99170
2019-05-07T11:05:46.763Z,99170
2019-05-07T11:07:46.740Z,99160
2019-05-07T11:09:46.854Z,99160
2019-05-07T11:11:48.741Z,99160
2019-05-07T11:13:47.140Z,99160
2019-05-07T11:15:47.966Z,99150
2019-05-07T11:17:47.209Z,99160
2019-05-07T11:19:47.329Z,99160
2019-05-07T11:21:47.307Z,99160
2019-05-07T11:23:48.527Z,99160
2019-05-07T11:25:47.555Z,99150
2019-05-07T11:27:47.617Z,99150
2019-05-07T11:29:47.601Z,99150
2019-05-07T11:31:47.723Z,99150
2019-05-07T11:33:47.689Z,99150
2019-05-07T11:35:48.316Z,99140
2019-05-07T11:37:48.071Z,99140
2019-05-07T11:39:47.905Z,99130
2019-05-07T11:41:47.942Z,99130
2019-05-07T11:43:49.417Z,99130
2019-05-07T11:45:48.125Z,99130
2019-05-07T11:47:48.207Z,99130
2019-05-07T11:49:48.804Z,99130
2019-05-07T11:51:48.257Z,99140
2019-05-07T11:53:48.505Z,99130
2019-05-07T11:55:49.370Z,99130
2019-05-07T11:57:49.139Z,99130
2019-05-07T11:59:48.818Z,99130
2019-05-07T12:01:49.634Z,99130
2019-05-07T12:03:49.091Z,99120
2019-05-07T12:05:49.098Z,99130
2019-05-07T12:07:49.863Z,99120
2019-05-07T12:09:49.301Z,99120
2019-05-07T12:11:49.433Z,99120
2019-05-07T12:13:49.786Z,99120
2019-05-07T12:15:51.609Z,99120
2019-05-07T12:17:52.008Z,99120
2019-05-07T12:19:50.019Z,99120
2019-05-07T12:21:50.013Z,99120
2019-05-07T12:23:52.398Z,99120
2019-05-07T12:25:52.715Z,99110
2019-05-07T12:27:52.185Z,99120
2019-05-07T12:29:52.876Z,99120
2019-05-07T12:31:52.390Z,99120
2019-05-07T12:33:52.219Z,99120
2019-05-07T12:35:52.583Z,99120
2019-05-07T12:37:54.208Z,99120
2019-05-07T12:39:52.885Z,99110
2019-05-07T12:41:53.466Z,99120
2019-05-07T12:43:54.042Z,99120
2019-05-07T12:45:54.103Z,99110
2019-05-07T12:47:54.538Z,99120
2019-05-07T12:49:55.207Z,99110
2019-05-07T12:51:55.255Z,99120
2019-05-07T12:53:55.858Z,99110
2019-05-07T12:55:56.227Z,99110
2019-05-07T12:57:56.653Z,99110
2019-05-07T12:59:57.163Z,99110
2019-05-07T13:01:58.514Z,99100
2019-05-07T13:03:57.917Z,99100
2019-05-07T13:05:58.451Z,99100
2019-05-07T13:07:59.590Z,99110
2019-05-07T13:09:59.743Z,99100
2019-05-07T13:12:00.087Z,99100
2019-05-07T13:14:02.115Z,99100
2019-05-07T13:16:02.932Z,99090
2019-05-07T13:18:02.775Z,99100
2019-05-07T13:20:02.046Z,99100
2019-05-07T13:22:03.758Z,99100
2019-05-07T13:24:03.014Z,99100
2019-05-07T13:26:03.522Z,99100
2019-05-07T13:28:03.951Z,99100
2019-05-07T13:30:05.612Z,99100
2019-05-07T13:32:05.138Z,99100
2019-05-07T13:34:05.096Z,99100
2019-05-07T13:36:05.390Z,99090
2019-05-07T13:38:05.870Z,99090
2019-05-07T13:40:06.532Z,99090
2019-05-07T13:42:06.510Z,99090
2019-05-07T13:44:07.044Z,99080
2019-05-07T13:46:07.222Z,99080
2019-05-07T13:48:07.480Z,99080
2019-05-07T13:50:08.729Z,99080
2019-05-07T13:52:08.840Z,99080
2019-05-07T13:54:08.956Z,99080
2019-05-07T13:56:09.984Z,99080
2019-05-07T13:58:14.048Z,99080
2019-05-07T14:00:12.859Z,99080
2019-05-07T14:02:13.811Z,99080
2019-05-07T14:04:12.903Z,99070
2019-05-07T14:06:12.756Z,99070
2019-05-07T14:08:14.243Z,99070
2019-05-07T14:10:12.836Z,99070
2019-05-07T14:12:12.909Z,99060
2019-05-07T14:14:13.446Z,99070
2019-05-07T14:16:13.642Z,99060
2019-05-07T14:18:13.332Z,99070
2019-05-07T14:20:13.875Z,99070
2019-05-07T14:22:18.395Z,99060
2019-05-07T14:24:15.930Z,99060
2019-05-07T14:26:14.122Z,99070
2019-05-07T14:28:14.241Z,99050
2019-05-07T14:30:15.374Z,99050
2019-05-07T14:32:15.884Z,99060
2019-05-07T14:34:14.566Z,99060
2019-05-07T14:36:14.669Z,99060
2019-05-07T14:38:15.152Z,99060
2019-05-07T14:40:15.848Z,99060
2019-05-07T14:42:15.117Z,99060
2019-05-07T14:44:15.398Z,99060
2019-05-07T14:46:16.357Z,99060
2019-05-07T14:48:15.608Z,99050
2019-05-07T14:50:15.969Z,99060
2019-05-07T14:52:22.612Z,99050
2019-05-07T14:54:18.266Z,99050
2019-05-07T14:56:16.071Z,99050
2019-05-07T14:58:16.041Z,99050
2019-05-07T15:00:16.398Z,99060
2019-05-07T15:02:16.462Z,99060
2019-05-07T15:04:16.498Z,99060
2019-05-07T15:06:16.872Z,99060
2019-05-07T15:08:17.188Z,99060
2019-05-07T15:10:17.231Z,99060
2019-05-07T15:12:17.192Z,99060
2019-05-07T15:14:17.401Z,99060
2019-05-07T15:16:17.942Z,99060
2019-05-07T15:18:18.343Z,99060
2019-05-07T15:20:18.250Z,99060
2019-05-07T15:22:18.840Z,99060
2019-05-07T15:24:21.946Z,99060
2019-05-07T15:26:18.827Z,99060
2019-05-07T15:28:18.951Z,99070
2019-05-07T15:30:21.789Z,99060
2019-05-07T15:32:21.772Z,99070
2019-05-07T15:34:19.723Z,99070
2019-05-07T15:36:19.871Z,99070
2019-05-07T15:38:21.715Z,99060
2019-05-07T15:40:22.379Z,99070
2019-05-07T15:42:22.174Z,99060
2019-05-07T15:44:21.215Z,99070
2019-05-07T15:46:22.714Z,99070
2019-05-07T15:48:22.019Z,99070
2019-05-07T15:50:23.057Z,99070
2019-05-07T15:52:22.266Z,99070
2019-05-07T15:54:22.339Z,99070
2019-05-07T15:56:22.709Z,99070
2019-05-07T15:58:22.895Z,99070
2019-05-07T16:00:23.464Z,99070
2019-05-07T16:02:23.809Z,99070
2019-05-07T16:04:25.975Z,99070
2019-05-07T16:06:24.506Z,99070
2019-05-07T16:08:24.175Z,99070
2019-05-07T16:10:25.086Z,99070
2019-05-07T16:12:24.786Z,99070
2019-05-07T16:14:26.850Z,99070
2019-05-07T16:16:25.691Z,99080
2019-05-07T16:18:25.686Z,99080
2019-05-07T16:20:25.751Z,99080
2019-05-07T16:22:25.823Z,99080
2019-05-07T16:24:25.876Z,99080
2019-05-07T16:26:26.032Z,99090
2019-05-07T16:28:26.047Z,99080
2019-05-07T16:30:26.475Z,99080
2019-05-07T16:32:26.481Z,99080
2019-05-07T16:34:26.685Z,99080
2019-05-07T16:36:26.914Z,99080
2019-05-07T16:38:27.099Z,99090
2019-05-07T16:40:26.939Z,99080
2019-05-07T16:42:27.920Z,99080
2019-05-07T16:44:27.416Z,99090
2019-05-07T16:46:27.473Z,99080
2019-05-07T16:48:27.556Z,99090
2019-05-07T16:50:27.545Z,99090
2019-05-07T16:52:27.472Z,99090
2019-05-07T16:54:27.722Z,99080
2019-05-07T16:56:28.011Z,99080
2019-05-07T16:58:28.680Z,99090
2019-05-07T17:00:27.678Z,99090
2019-05-07T17:02:27.848Z,99090
2019-05-07T17:04:27.754Z,99080
2019-05-07T17:06:27.731Z,99090
2019-05-07T17:08:28.140Z,99090
2019-05-07T17:10:27.893Z,99090
2019-05-07T17:12:27.920Z,99100
2019-05-07T17:14:28.153Z,99100
2019-05-07T17:16:27.998Z,99100
2019-05-07T17:18:28.239Z,99100
2019-05-07T17:20:28.187Z,99100
2019-05-07T17:22:27.897Z,99100
2019-05-07T17:24:27.919Z,99100
2019-05-07T17:26:28.225Z,99100
2019-05-07T17:28:28.021Z,99110
2019-05-07T17:30:29.443Z,99110
2019-05-07T17:32:27.947Z,99110
2019-05-07T17:34:28.091Z,99110
2019-05-07T17:36:27.868Z,99110
2019-05-07T17:38:28.099Z,99110
2019-05-07T17:40:27.992Z,99120
2019-05-07T17:42:28.924Z,99120
2019-05-07T17:44:28.135Z,99120
2019-05-07T17:46:28.112Z,99120
2019-05-07T17:48:27.926Z,99120
2019-05-07T17:50:28.248Z,99120
2019-05-07T17:52:27.889Z,99120
2019-05-07T17:54:27.847Z,99130
2019-05-07T17:56:27.901Z,99120
2019-05-07T17:58:27.692Z,99130
2019-05-07T18:00:27.796Z,99130
2019-05-07T18:02:29.569Z,99130
2019-05-07T18:04:27.594Z,99130
2019-05-07T18:06:27.803Z,99130
2019-05-07T18:08:27.840Z,99130
2019-05-07T18:10:27.770Z,99130
2019-05-07T18:12:27.853Z,99140
2019-05-07T18:14:27.718Z,99130
2019-05-07T18:16:27.474Z,99130
2019-05-07T18:18:27.587Z,99130
2019-05-07T18:20:27.729Z,99130
2019-05-07T18:22:27.465Z,99130
2019-05-07T18:24:27.796Z,99130
2019-05-07T18:26:30.743Z,99130
2019-05-07T18:28:27.352Z,99130
2019-05-07T18:30:27.250Z,99130
2019-05-07T18:32:27.288Z,99130
2019-05-07T18:34:27.194Z,99130
2019-05-07T18:36:27.138Z,99130
2019-05-07T18:38:29.502Z,99130
2019-05-07T18:40:27.114Z,99130
2019-05-07T18:42:27.036Z,99130
2019-05-07T18:44:27.216Z,99130
2019-05-07T18:46:27.126Z,99130
2019-05-07T18:48:27.185Z,99130
2019-05-07T18:50:27.122Z,99130
2019-05-07T18:52:27.207Z,99130
2019-05-07T18:54:31.042Z,99130
2019-05-07T18:56:26.759Z,99130
2019-05-07T18:58:26.617Z,99140
2019-05-07T19:00:26.623Z,99140
2019-05-07T19:02:27.578Z,99140
2019-05-07T19:04:26.322Z,99130
2019-05-07T19:06:26.264Z,99130
2019-05-07T19:08:26.319Z,99140
2019-05-07T19:10:26.290Z,99140
2019-05-07T19:12:26.133Z,99140
2019-05-07T19:14:26.386Z,99140
2019-05-07T19:16:26.156Z,99150
2019-05-07T19:18:26.101Z,99140
2019-05-07T19:20:25.995Z,99150
2019-05-07T19:22:25.991Z,99150
2019-05-07T19:24:26.432Z,99150
2019-05-07T19:26:25.979Z,99150
2019-05-07T19:28:25.702Z,99150
2019-05-07T19:30:25.737Z,99150
2019-05-07T19:32:25.724Z,99150
2019-05-07T19:34:25.734Z,99150
2019-05-07T19:36:25.357Z,99150
2019-05-07T19:38:25.589Z,99150
2019-05-07T19:40:25.546Z,99150
2019-05-07T19:42:25.259Z,99150
2019-05-07T19:44:25.364Z,99150
2019-05-07T19:46:25.142Z,99150
2019-05-07T19:48:25.271Z,99150
2019-05-07T19:50:25.416Z,99150
2019-05-07T19:52:26.101Z,99150
2019-05-07T19:54:24.944Z,99150
2019-05-07T19:56:24.864Z,99150
2019-05-07T19:58:24.974Z,99150
2019-05-07T20:00:24.645Z,99150
2019-05-07T20:02:26.986Z,99150
2019-05-07T20:04:24.610Z,99150
2019-05-07T20:06:24.493Z,99150
2019-05-07T20:08:24.544Z,99160
2019-05-07T20:10:24.407Z,99150
2019-05-07T20:12:25.266Z,99160
2019-05-07T20:14:24.278Z,99160
2019-05-07T20:16:24.136Z,99160
2019-05-07T20:18:24.005Z,99160
2019-05-07T20:20:24.081Z,99160
2019-05-07T20:22:23.832Z,99160
2019-05-07T20:24:23.906Z,99160
2019-05-07T20:26:23.847Z,99160
2019-05-07T20:28:23.710Z,99160
2019-05-07T20:30:23.691Z,99160
2019-05-07T20:32:23.444Z,99160
2019-05-07T20:34:23.353Z,99150
2019-05-07T20:36:23.451Z,99160
2019-05-07T20:38:23.302Z,99150
2019-05-07T20:40:23.309Z,99150
2019-05-07T20:42:26.053Z,99150
2019-05-07T20:44:24.155Z,99160
2019-05-07T20:46:22.828Z,99160
2019-05-07T20:48:22.912Z,99160
2019-05-07T20:50:22.870Z,99160
2019-05-07T20:52:23.056Z,99160
2019-05-07T20:54:23.602Z,99160
2019-05-07T20:56:22.698Z,99160
2019-05-07T20:58:22.291Z,99160
2019-05-07T21:00:23.402Z,99160
2019-05-07T21:02:22.850Z,99160
2019-05-07T21:04:22.404Z,99160
2019-05-07T21:06:22.538Z,99160
2019-05-07T21:08:22.791Z,99150
2019-05-07T21:10:22.194Z,99150
2019-05-07T21:12:22.483Z,99150
2019-05-07T21:14:22.809Z,99150
2019-05-07T21:16:22.227Z,99150
2019-05-07T21:18:23.257Z,99150
2019-05-07T21:20:22.841Z,99150
2019-05-07T21:22:22.657Z,99150
2019-05-07T21:24:22.539Z,99150
2019-05-07T21:26:22.460Z,99150
2019-05-07T21:28:21.241Z,99150
2019-05-07T21:30:22.298Z,99150
2019-05-07T21:36:22.857Z,99160
2019-05-07T21:38:22.495Z,99160
2019-05-07T21:40:22.458Z,99150
2019-05-07T21:42:22.674Z,99150
2019-05-07T21:44:22.692Z,99150
2019-05-07T21:46:22.267Z,99150
2019-05-07T21:48:22.218Z,99150
2019-05-07T21:50:21.933Z,99150
2019-05-07T21:52:22.033Z,99150
2019-05-07T21:54:19.922Z,99150
2019-05-07T21:56:19.820Z,99150
2019-05-07T21:58:19.680Z,99150
2019-05-07T22:02:19.541Z,99150
2019-05-07T22:04:19.426Z,99160
2019-05-07T22:06:19.293Z,99160
2019-05-07T22:08:19.256Z,99150
2019-05-07T22:10:19.355Z,99160
2019-05-07T22:12:18.967Z,99160
2019-05-07T22:14:18.884Z,99150
2019-05-07T22:16:18.685Z,99150
2019-05-07T22:18:18.555Z,99150
2019-05-07T22:20:18.612Z,99150
2019-05-07T22:22:18.394Z,99150
2019-05-07T22:24:18.228Z,99150
2019-05-07T22:26:22.851Z,99160
2019-05-07T22:28:17.998Z,99160
2019-05-07T22:30:18.132Z,99150
2019-05-07T22:32:17.853Z,99160
2019-05-07T22:34:19.308Z,99160
2019-05-07T22:38:25.765Z,99160
2019-05-07T22:42:17.341Z,99150
2019-05-07T22:44:18.033Z,99160
2019-05-07T22:46:17.152Z,99150
2019-05-07T22:48:17.651Z,99150
2019-05-07T22:50:18.355Z,99160
2019-05-07T22:52:17.106Z,99150
2019-05-07T22:54:16.734Z,99150
2019-05-07T22:56:16.524Z,99160
2019-05-07T22:58:16.629Z,99150
2019-05-07T23:00:17.751Z,99150
2019-05-07T23:02:16.221Z,99150
2019-05-07T23:04:16.871Z,99150
2019-05-07T23:06:16.041Z,99150
2019-05-07T23:08:16.114Z,99150
2019-05-07T23:10:15.926Z,99150
2019-05-07T23:12:15.768Z,99150
2019-05-07T23:14:15.710Z,99150
2019-05-07T23:16:15.505Z,99150
2019-05-07T23:18:15.916Z,99150
2019-05-07T23:20:15.311Z,99150
2019-05-07T23:22:15.144Z,99150
2019-05-07T23:24:15.062Z,99150
2019-05-07T23:26:15.048Z,99150
2019-05-07T23:28:14.845Z,99150
2019-05-07T23:30:15.094Z,99150
2019-05-07T23:32:14.761Z,99150
2019-05-07T23:34:14.630Z,99150
2019-05-07T23:36:14.364Z,99150
2019-05-07T23:38:15.942Z,99150
2019-05-07T23:40:14.489Z,99160
2019-05-07T23:42:14.253Z,99160
2019-05-07T23:44:13.922Z,99160
2019-05-07T23:46:13.836Z,99160
2019-05-07T23:48:13.815Z,99160
2019-05-07T23:50:13.722Z,99160
2019-05-07T23:52:13.543Z,99150
2019-05-07T23:54:13.382Z,99160
2019-05-07T23:56:13.333Z,99160
2019-05-07T23:58:14.140Z,99150
